Latest Weather Observations for Giles*

IDD60801

Issued at 11:31 am CST Saturday 28 May 2016 (issued every 30 minutes, with the page automatically refreshed every 10 minutes)

About weather observations | Map of weather stations | Latest weather observations for NT | Other Formats
Station Details ID: 013017 Name: GILES METEOROLOGICAL OFFICE Lat: -25.03 Lon: 128.30 Height: 598.0 m
Data from the previous 72 hours. | See also: Recent months at Giles*

* Giles observations are collected in the South Australia time zone, which includes daylight saving in the summer period. Therefore, Rain since 9am value is with respect to South Australia local time.

Date/Time
CST
Temp
°C
App
Temp
°C
Dew
Point
Rel
Hum
%
Delta-T
°C
Wind Press
QNH
hPa
Press
MSL
hPa
Rain
since 9 am
mm
Dir
 
Spd
km/h
Gust
km/h
Spd
kts
Gust
kts
28/11:00am 17.4 13.4 3.1 38 6.8 NE 13 17 7 9 1021.1 1019.3 0.0
28/10:30am 15.9 12.4 3.7 44 5.8 N 11 17 6 9 1021.4 1019.6 0.0
28/10:00am 15.5 13.8 3.9 46 5.5 NE 2 13 1 7 1021.5 1019.7 0.0
28/09:30am 14.8 11.4 4.0 48 5.1 N 11 15 6 8 1021.2 1019.4 0.0
28/09:00am 14.3 11.8 5.0 53 4.5 NNE 7 11 4 6 1021.1 1019.3 0.0
28/08:30am 13.8 10.7 3.8 51 4.7 ENE 9 13 5 7 1021.1 1019.3 0.0
28/08:00am 12.6 9.3 4.3 57 3.9 ESE 11 13 6 7 1020.5 1018.7 0.0
28/07:30am 12.8 9.7 3.8 54 4.2 E 9 9 5 5 1020.1 1018.3 0.0
28/07:00am 12.7 9.7 4.2 56 4.0 ENE 9 13 5 7 1020.0 1018.2 0.0
28/06:30am 11.8 8.9 4.5 61 3.4 E 9 13 5 7 1019.7 1017.9 0.0
28/06:00am 11.5 7.8 4.4 61 3.3 ESE 13 17 7 9 1019.4 1017.6 0.0
28/05:30am 12.3 7.7 3.9 56 3.9 E 17 20 9 11 1019.2 1017.4 0.0
28/05:00am 10.8 7.1 4.3 64 3.0 ESE 13 17 7 9 1019.3 1017.5 0.0
28/04:30am 11.8 7.6 4.0 59 3.6 E 15 17 8 9 1019.4 1017.6 0.0
28/04:00am 12.1 8.4 4.2 58 3.7 ESE 13 19 7 10 1019.5 1017.7 0.0
28/03:30am 12.2 8.5 4.3 58 3.7 ESE 13 19 7 10 1019.9 1018.1 0.0
28/03:00am 12.7 8.9 3.9 55 4.1 ESE 13 17 7 9 1020.0 1018.2 0.0
28/02:30am 12.5 8.3 3.9 56 4.0 ESE 15 20 8 11 1020.3 1018.5 0.0
28/02:00am 12.3 8.5 4.1 57 3.8 ESE 13 17 7 9 1020.5 1018.7 0.0
28/01:30am 12.0 7.8 4.0 58 3.7 E 15 19 8 10 1020.7 1019.0 0.0
28/01:00am 12.8 8.2 3.7 54 4.2 E 17 22 9 12 1021.0 1019.2 0.0
28/12:30am 12.3 8.1 3.9 56 3.9 E 15 19 8 10 1021.4 1019.6 0.0
28/12:00am 11.5 7.8 4.2 61 3.4 ESE 13 15 7 8 1021.5 1019.7 0.0
 
Date/Time
CST
Temp
°C
App
Temp
°C
Dew
Point
Rel
Hum
%
Delta-T
°C
Wind Press
QNH
hPa
Press
MSL
hPa
Rain
since 9 am
mm
Dir
 
Spd
km/h
Gust
km/h
Spd
kts
Gust
kts
27/11:30pm 12.3 8.4 3.6 55 4.0 ESE 13 15 7 8 1021.7 1019.9 0.0
27/11:00pm 13.2 8.8 2.9 49 4.7 ESE 15 20 8 11 1021.8 1020.0 0.0
27/10:30pm 13.6 9.6 2.9 48 4.9 ESE 13 17 7 9 1021.7 1019.9 0.0
27/10:00pm 13.9 9.6 3.1 48 5.0 SE 15 17 8 9 1021.7 1019.9 0.0
27/09:30pm 14.2 10.3 3.5 48 5.0 SE 13 19 7 10 1021.5 1019.7 0.0
27/09:00pm 14.6 11.2 4.0 49 5.0 SE 11 15 6 8 1021.7 1019.9 0.0
27/08:30pm 14.6 11.3 4.3 50 4.9 SE 11 13 6 7 1021.4 1019.6 0.0
27/08:00pm 14.7 11.4 4.4 50 4.9 SSE 11 13 6 7 1021.2 1019.4 0.0
27/07:30pm 15.5 12.6 4.5 48 5.3 SSE 9 13 5 7 1021.0 1019.2 0.0
27/07:00pm 16.6 13.2 3.9 42 6.1 ESE 11 15 6 8 1020.4 1018.6 0.0
27/06:30pm 17.1 13.2 3.2 39 6.6 SE 13 15 7 8 1020.3 1018.5 0.0
27/06:00pm 17.4 13.1 3.4 39 6.7 SE 15 20 8 11 1020.3 1018.5 0.0
27/05:30pm 17.5 12.2 2.9 37 6.9 SE 20 28 11 15 1020.0 1018.2 0.0
27/05:00pm 17.9 12.5 2.7 36 7.2 SE 20 26 11 14 1020.1 1018.3 0.0
27/04:30pm 18.3 13.0 2.1 34 7.6 SE 19 28 10 15 1020.3 1018.5 0.0
27/04:00pm 18.1 12.4 3.0 36 7.2 SSE 22 32 12 17 1020.2 1018.4 0.0
27/03:30pm 17.9 12.2 2.7 36 7.2 SSE 22 32 12 17 1020.4 1018.6 0.0
27/03:00pm 18.1 12.5 3.6 38 7.0 SSE 22 30 12 16 1020.4 1018.6 0.0
27/02:30pm 19.3 13.1 -0.2 27 8.8 SSE 22 28 12 15 1021.0 1019.2 0.0
27/02:00pm 19.8 14.1 -0.7 25 9.2 SE 19 28 10 15 1021.0 1019.2 0.0
27/01:30pm 19.2 12.9 -0.8 26 8.9 ESE 22 30 12 16 1021.1 1019.3 0.0
27/01:00pm 19.4 12.1 -2.8 22 9.5 ESE 26 35 14 19 1021.5 1019.7 0.0
27/12:30pm 19.1 12.7 0.8 29 8.4 SE 24 35 13 19 1022.4 1020.7 0.0
27/12:00pm 18.7 12.2 0.4 29 8.3 SE 24 37 13 20 1022.9 1021.1 0.0
27/11:30am 18.1 10.1 0.7 31 7.9 SE 32 41 17 22 1023.3 1021.5 0.0
27/11:00am 17.5 9.6 1.0 33 7.5 SSE 32 41 17 22 1023.6 1021.9 0.0
27/10:30am 17.0 9.2 1.5 35 7.1 SE 32 44 17 24 1023.6 1021.9 0.0
27/10:00am 16.3 9.9 0.9 35 6.9 SE 24 32 13 17 1023.7 1022.0 0.0
27/09:30am 14.4 8.7 0.5 38 6.1 SE 20 30 11 16 1023.4 1021.6 0.0
27/09:00am 14.3 8.7 1.3 41 5.8 ESE 20 26 11 14 1022.3 1020.6 0.0
27/08:30am 12.4 7.8 1.8 48 4.7 SE 15 20 8 11 1022.9 1021.1 0.0
27/08:00am 11.9 7.0 1.7 49 4.5 SE 17 22 9 12 1022.3 1020.6 0.0
27/07:30am 11.1 6.2 2.0 53 4.0 ESE 17 22 9 12 1021.5 1019.7 0.0
27/07:00am 11.9 6.4 1.7 49 4.5 SE 20 24 11 13 1021.9 1020.1 0.0
27/06:30am 11.9 7.0 1.7 49 4.5 SE 17 22 9 12 1021.5 1019.7 0.0
27/06:00am 11.6 6.7 1.8 51 4.3 SE 17 24 9 13 1021.4 1019.6 0.0
27/05:30am 10.5 6.1 2.9 59 3.4 SE 15 17 8 9 1021.1 1019.3 0.0
27/05:00am 11.0 6.3 3.0 58 3.6 SE 17 20 9 11 1021.1 1019.3 0.0
27/04:30am 11.1 6.8 3.4 59 3.5 SE 15 19 8 10 1020.6 1018.9 0.0
27/04:00am 11.5 7.2 3.4 57 3.7 SE 15 17 8 9 1020.7 1019.0 0.0
27/03:30am 12.2 7.9 3.2 54 4.1 SE 15 19 8 10 1020.7 1019.0 0.0
27/03:00am 12.8 8.5 3.2 52 4.4 SSE 15 20 8 11 1020.7 1019.0 0.0
27/02:30am 13.4 8.7 3.2 50 4.7 SSE 17 20 9 11 1020.6 1018.9 0.0
27/02:00am 13.9 9.2 3.1 48 5.0 SSE 17 24 9 13 1020.5 1018.7 0.0
27/01:30am 14.7 9.6 2.8 44 5.5 SSE 19 24 10 13 1020.6 1018.9 0.0
27/01:00am 15.4 10.0 2.7 42 5.9 SSE 20 28 11 15 1020.9 1019.1 0.0
27/12:30am 16.2 10.5 3.0 41 6.2 SSE 22 32 12 17 1020.7 1019.0 0.0
27/12:00am 16.8 11.9 5.0 45 5.8 SSE 20 28 11 15 1020.7 1019.0 0.0
 
Date/Time
CST
Temp
°C
App
Temp
°C
Dew
Point
Rel
Hum
%
Delta-T
°C
Wind Press
QNH
hPa
Press
MSL
hPa
Rain
since 9 am
mm
Dir
 
Spd
km/h
Gust
km/h
Spd
kts
Gust
kts
26/11:30pm 17.4 11.7 5.0 44 6.1 S 24 32 13 17 1020.4 1018.6 0.0
26/11:00pm 17.8 13.3 5.9 45 6.0 SSE 19 24 10 13 1020.3 1018.5 0.0
26/10:30pm 18.2 13.7 6.9 47 5.8 S 20 26 11 14 1020.1 1018.3 0.0
26/10:00pm 18.7 15.0 7.9 49 5.7 S 17 24 9 13 1019.8 1018.0 0.0
26/09:30pm 18.9 16.0 9.7 55 5.0 SSW 15 24 8 13 1019.6 1017.8 0.0
26/09:00pm 19.2 16.3 11.0 59 4.6 S 17 20 9 11 1019.3 1017.5 0.0
26/08:30pm 19.4 17.2 12.0 62 4.2 SSE 15 20 8 11 1018.8 1017.0 0.0
26/08:00pm 20.4 17.9 12.4 60 4.6 S 17 26 9 14 1018.4 1016.6 0.0
26/07:30pm 21.4 17.7 12.6 57 5.1 S 24 35 13 19 1018.0 1016.2 0.0
26/07:00pm 22.8 20.1 12.8 53 5.9 SSW 19 26 10 14 1017.3 1015.4 0.0
26/06:30pm 23.5 21.8 12.4 49 6.5 SSW 13 19 7 10 1016.5 1014.7 0.0
26/06:00pm 24.6 21.5 12.1 45 7.3 SSW 20 30 11 16 1016.3 1014.5 0.0
26/05:30pm 25.9 23.1 11.3 40 8.5 SW 17 26 9 14 1016.1 1014.2 0.0
26/05:00pm 26.3 22.7 10.7 37 9.0 SW 20 30 11 16 1015.9 1014.0 0.0
26/04:30pm 27.2 23.6 10.6 35 9.6 WSW 20 30 11 16 1015.7 1013.8 0.0
26/04:00pm 27.2 23.6 10.6 35 9.6 WSW 20 32 11 17 1015.3 1013.5 0.0
26/03:30pm 27.6 24.0 10.7 34 9.8 W 20 33 11 18 1015.7 1013.8 0.0
26/03:00pm 27.5 23.6 10.8 35 9.7 W 22 35 12 19 1015.7 1013.8 0.0
26/02:30pm 27.7 22.8 10.1 33 10.1 WSW 26 37 14 20 1015.8 1013.9 0.0
26/02:00pm 27.3 22.4 9.8 33 10.0 W 26 35 14 19 1015.7 1013.8 0.0
26/01:30pm 27.4 23.7 10.2 34 9.9 WSW 20 32 11 17 1016.0 1014.1 0.0
26/01:00pm 26.4 23.0 10.4 36 9.2 WSW 19 28 10 15 1016.2 1014.4 0.0
26/12:30pm 26.6 22.4 9.9 35 9.5 WSW 22 33 12 18 1016.8 1015.0 0.0
26/12:00pm 26.4 22.3 10.1 36 9.3 W 22 33 12 18 1017.0 1015.2 0.0
26/11:30am 25.5 21.5 10.5 39 8.6 W 22 32 12 17 1016.9 1015.1 0.0
26/11:00am 25.2 21.8 10.7 40 8.3 W 19 28 10 15 1016.9 1015.1 0.0
26/10:30am 24.6 22.9 11.3 43 7.7 WNW 11 17 6 9 1016.6 1014.8 0.0
26/10:00am 23.3 22.0 11.3 46 6.9 NW 9 13 5 7 1016.4 1014.6 0.0
26/09:30am 21.9 21.0 11.4 51 6.0 NW 7 11 4 6 1016.3 1014.5 0.0
26/09:00am 21.1 20.2 11.2 53 5.6 NNW 7 9 4 5 1016.4 1014.6 0.0
26/08:30am 20.1 19.4 11.5 57 4.9 NNW 6 7 3 4 1016.2 1014.4 0.0
26/08:00am 18.6 17.8 10.9 61 4.3 N 6 9 3 5 1015.9 1014.0 0.0
26/07:30am 16.9 16.1 10.9 67 3.3 NNW 6 9 3 5 1015.7 1013.8 0.0
26/07:00am 17.4 16.5 10.7 65 3.7 NW 6 9 3 5 1015.3 1013.5 0.0
26/06:30am 17.5 16.7 11.0 65 3.6 WSW 6 9 3 5 1015.2 1013.4 0.0
26/06:00am 17.4 14.2 9.9 61 4.1 WNW 17 28 9 15 1015.2 1013.4 0.0
26/05:30am 17.8 15.7 9.7 59 4.4 NNW 11 13 6 7 1014.9 1013.1 0.0
26/05:00am 18.2 16.0 9.5 57 4.7 NW 11 13 6 7 1014.9 1013.1 0.0
26/04:30am 18.7 17.0 9.7 56 4.9 NNW 9 13 5 7 1014.8 1013.0 0.0
26/04:00am 18.7 16.6 9.7 56 4.9 NNW 11 13 6 7 1014.7 1012.8 0.0
26/03:30am 18.9 16.7 9.5 54 5.1 NNW 11 13 6 7 1014.7 1012.8 0.0
26/03:00am 19.2 17.3 9.2 52 5.4 NNW 9 11 5 6 1014.9 1013.1 0.0
26/02:30am 19.4 17.1 9.1 51 5.6 NNW 11 13 6 7 1015.2 1013.4 0.0
26/02:00am 19.7 17.3 8.5 48 6.0 NNW 11 11 6 6 1015.4 1013.6 0.0
26/01:30am 19.9 17.5 8.6 48 6.1 NW 11 13 6 7 1015.7 1013.8 0.0
26/01:00am 20.3 17.5 8.4 46 6.4 NW 13 15 7 8 1015.7 1013.8 0.0
26/12:30am 20.5 18.0 8.2 45 6.6 NNW 11 13 6 7 1015.8 1013.9 0.0
26/12:00am 20.2 17.8 8.5 47 6.3 NNW 11 13 6 7 1016.0 1014.1 0.0
 
Date/Time
CST
Temp
°C
App
Temp
°C
Dew
Point
Rel
Hum
%
Delta-T
°C
Wind Press
QNH
hPa
Press
MSL
hPa
Rain
since 9 am
mm
Dir
 
Spd
km/h
Gust
km/h
Spd
kts
Gust
kts
25/11:30pm 20.4 18.0 8.5 46 6.4 NNW 11 13 6 7 1016.1 1014.2 0.0
25/11:00pm 21.2 18.6 7.9 42 7.1 NNW 11 13 6 7 1016.0 1014.1 0.0
25/10:30pm 21.4 18.9 8.2 42 7.1 NNW 11 11 6 6 1016.1 1014.2 0.0
25/10:00pm 21.1 19.1 8.8 45 6.7 NNW 9 11 5 6 1016.1 1014.2 0.0
25/09:30pm 21.0 17.7 7.9 43 7.0 N 15 17 8 9 1015.9 1014.0 0.0
25/09:00pm 21.5 18.5 7.6 40 7.4 NNW 13 15 7 8 1015.9 1014.0 0.0
25/08:30pm 22.1 19.1 7.5 39 7.8 N 13 13 7 7 1015.6 1013.7 0.0
25/08:00pm 21.8 18.8 7.8 40 7.5 N 13 13 7 7 1015.1 1013.3 0.0
25/07:30pm 22.6 20.3 7.5 37 8.1 NNW 9 9 5 5 1014.9 1013.1 0.0
25/07:00pm 24.3 21.0 6.4 31 9.5 NW 13 15 7 8 1014.5 1012.6 0.0
25/06:30pm 25.7 21.9 5.9 28 10.5 NW 15 20 8 11 1014.0 1012.1 0.0
25/06:00pm 27.0 22.4 5.8 26 11.3 NW 19 24 10 13 1013.6 1011.8 0.0
25/05:30pm 27.8 22.2 5.5 24 11.9 NW 24 33 13 18 1013.5 1011.7 0.0
25/05:00pm 28.2 22.7 5.9 24 12.0 NW 24 37 13 20 1013.4 1011.6 0.0
25/04:30pm 28.3 22.5 6.1 24 12.0 NW 26 37 14 20 1013.2 1011.3 0.0
25/04:00pm 28.8 22.8 5.5 22 12.5 NNW 26 41 14 22 1013.1 1011.2 0.0
25/03:30pm 28.7 22.0 5.6 23 12.4 NW 30 46 16 25 1013.1 1011.2 0.0
25/03:00pm 28.5 22.4 6.4 24 12.0 NW 28 41 15 22 1013.3 1011.5 0.0
25/02:30pm 28.9 24.1 7.4 25 11.9 NW 22 35 12 19 1013.8 1011.9 0.0
25/02:01pm 27.9 22.0 7.6 27 11.2 NW 28 50 15 27 1014.1 1012.2 0.0
25/02:00pm 28.1 22.4 8.2 28 11.1 NW 28 41 15 22 1014.1 1012.2 0.0
25/01:30pm 27.9 23.2 9.2 31 10.6 NW 24 35 13 19 1014.6 1012.7 0.0
25/01:00pm 27.5 23.3 9.6 32 10.2 NW 22 33 12 18 1015.1 1013.3 0.0
25/12:30pm 26.6 21.9 10.7 37 9.2 NW 26 35 14 19 1015.8 1013.9 0.0
25/12:00pm 25.8 22.7 11.6 41 8.3 NNW 19 30 10 16 1016.2 1014.4 0.0

Other Formats:

Comma delimited format used in spreadsheet applications
http://www.bom.gov.au/fwo/IDD60801/IDD60801.94461.axf

JavaScript Object Notation format (JSON) in row-major order
http://www.bom.gov.au/fwo/IDD60801/IDD60801.94461.json